sensor_id;sensor_type;location;lat;lon;timestamp;P1;durP1;ratioP1;P2;durP2;ratioP2
5730;SDS011;2890;51.950;7.668;2022-07-04T00:00:43;2.85;;;2.33;;
5730;SDS011;2890;51.950;7.668;2022-07-04T00:03:12;4.47;;;2.40;;
5730;SDS011;2890;51.950;7.668;2022-07-04T00:05:39;3.42;;;2.15;;
5730;SDS011;2890;51.950;7.668;2022-07-04T00:08:06;3.15;;;2.30;;
5730;SDS011;2890;51.950;7.668;2022-07-04T00:10:33;2.33;;;2.10;;
5730;SDS011;2890;51.950;7.668;2022-07-04T00:13:00;2.63;;;1.92;;
5730;SDS011;2890;51.950;7.668;2022-07-04T00:15:27;2.92;;;2.03;;
5730;SDS011;2890;51.950;7.668;2022-07-04T00:17:54;4.25;;;2.42;;
5730;SDS011;2890;51.950;7.668;2022-07-04T00:20:23;3.85;;;2.30;;
5730;SDS011;2890;51.950;7.668;2022-07-04T00:22:50;3.40;;;2.05;;
5730;SDS011;2890;51.950;7.668;2022-07-04T00:25:17;3.38;;;2.17;;
5730;SDS011;2890;51.950;7.668;2022-07-04T00:27:44;3.08;;;2.38;;
5730;SDS011;2890;51.950;7.668;2022-07-04T00:30:12;3.17;;;2.75;;
5730;SDS011;2890;51.950;7.668;2022-07-04T00:32:39;3.80;;;2.47;;
5730;SDS011;2890;51.950;7.668;2022-07-04T00:35:06;2.33;;;1.98;;
5730;SDS011;2890;51.950;7.668;2022-07-04T00:37:35;5.78;;;2.58;;
5730;SDS011;2890;51.950;7.668;2022-07-04T00:40:02;4.80;;;2.42;;
5730;SDS011;2890;51.950;7.668;2022-07-04T00:42:29;4.22;;;2.72;;
5730;SDS011;2890;51.950;7.668;2022-07-04T00:44:56;3.20;;;2.40;;
5730;SDS011;2890;51.950;7.668;2022-07-04T00:47:23;4.72;;;2.65;;
5730;SDS011;2890;51.950;7.668;2022-07-04T00:49:51;3.22;;;2.50;;
5730;SDS011;2890;51.950;7.668;2022-07-04T00:52:18;5.82;;;2.45;;
5730;SDS011;2890;51.950;7.668;2022-07-04T00:54:47;2.85;;;2.45;;
5730;SDS011;2890;51.950;7.668;2022-07-04T00:57:14;4.13;;;2.63;;
5730;SDS011;2890;51.950;7.668;2022-07-04T00:59:41;4.13;;;2.88;;
5730;SDS011;2890;51.950;7.668;2022-07-04T01:02:08;4.03;;;2.65;;
5730;SDS011;2890;51.950;7.668;2022-07-04T01:04:36;3.28;;;2.55;;
5730;SDS011;2890;51.950;7.668;2022-07-04T01:07:03;5.10;;;3.00;;
5730;SDS011;2890;51.950;7.668;2022-07-04T01:09:30;2.92;;;2.38;;
5730;SDS011;2890;51.950;7.668;2022-07-04T01:11:59;4.13;;;2.80;;
5730;SDS011;2890;51.950;7.668;2022-07-04T01:14:26;4.15;;;3.22;;
5730;SDS011;2890;51.950;7.668;2022-07-04T01:16:53;4.20;;;3.15;;
5730;SDS011;2890;51.950;7.668;2022-07-04T01:19:20;4.20;;;3.20;;
5730;SDS011;2890;51.950;7.668;2022-07-04T01:21:49;4.43;;;3.22;;
5730;SDS011;2890;51.950;7.668;2022-07-04T01:24:16;3.22;;;2.92;;
5730;SDS011;2890;51.950;7.668;2022-07-04T01:26:43;4.30;;;3.03;;
5730;SDS011;2890;51.950;7.668;2022-07-04T01:29:10;5.80;;;3.35;;
5730;SDS011;2890;51.950;7.668;2022-07-04T01:31:37;6.93;;;3.22;;
5730;SDS011;2890;51.950;7.668;2022-07-04T01:34:04;3.25;;;2.95;;
5730;SDS011;2890;51.950;7.668;2022-07-04T01:36:31;5.32;;;3.20;;
5730;SDS011;2890;51.950;7.668;2022-07-04T01:39:02;4.03;;;2.95;;
5730;SDS011;2890;51.950;7.668;2022-07-04T01:41:32;6.38;;;3.05;;
5730;SDS011;2890;51.950;7.668;2022-07-04T01:43:59;3.65;;;3.03;;
5730;SDS011;2890;51.950;7.668;2022-07-04T01:46:27;4.93;;;2.85;;
5730;SDS011;2890;51.950;7.668;2022-07-04T01:48:54;4.55;;;2.90;;
5730;SDS011;2890;51.950;7.668;2022-07-04T01:51:21;3.10;;;2.90;;
5730;SDS011;2890;51.950;7.668;2022-07-04T01:53:48;4.75;;;2.80;;
5730;SDS011;2890;51.950;7.668;2022-07-04T01:56:17;3.35;;;3.00;;
5730;SDS011;2890;51.950;7.668;2022-07-04T01:58:44;3.50;;;3.20;;
5730;SDS011;2890;51.950;7.668;2022-07-04T02:01:11;5.45;;;3.45;;
5730;SDS011;2890;51.950;7.668;2022-07-04T02:03:55;5.07;;;3.17;;
5730;SDS011;2890;51.950;7.668;2022-07-04T02:06:22;4.15;;;3.13;;
5730;SDS011;2890;51.950;7.668;2022-07-04T02:08:49;3.67;;;3.30;;
5730;SDS011;2890;51.950;7.668;2022-07-04T02:11:36;5.03;;;3.92;;
5730;SDS011;2890;51.950;7.668;2022-07-04T02:14:20;4.38;;;3.30;;
5730;SDS011;2890;51.950;7.668;2022-07-04T02:16:47;4.05;;;3.70;;
5730;SDS011;2890;51.950;7.668;2022-07-04T02:19:15;4.97;;;3.15;;
5730;SDS011;2890;51.950;7.668;2022-07-04T02:21:42;6.43;;;3.90;;
5730;SDS011;2890;51.950;7.668;2022-07-04T02:24:09;4.90;;;3.60;;
5730;SDS011;2890;51.950;7.668;2022-07-04T02:26:38;5.28;;;3.70;;
5730;SDS011;2890;51.950;7.668;2022-07-04T02:29:05;4.22;;;3.67;;
5730;SDS011;2890;51.950;7.668;2022-07-04T02:31:32;3.90;;;3.50;;
5730;SDS011;2890;51.950;7.668;2022-07-04T02:33:59;3.97;;;3.47;;
5730;SDS011;2890;51.950;7.668;2022-07-04T02:36:26;4.97;;;3.78;;
5730;SDS011;2890;51.950;7.668;2022-07-04T02:38:53;4.88;;;3.78;;
5730;SDS011;2890;51.950;7.668;2022-07-04T02:41:20;5.20;;;3.92;;
5730;SDS011;2890;51.950;7.668;2022-07-04T02:43:49;3.67;;;3.38;;
5730;SDS011;2890;51.950;7.668;2022-07-04T02:46:16;4.88;;;4.18;;
5730;SDS011;2890;51.950;7.668;2022-07-04T02:48:43;5.05;;;3.78;;
5730;SDS011;2890;51.950;7.668;2022-07-04T02:51:10;5.15;;;3.90;;
5730;SDS011;2890;51.950;7.668;2022-07-04T02:53:37;4.65;;;3.78;;
5730;SDS011;2890;51.950;7.668;2022-07-04T02:56:04;4.65;;;3.58;;
5730;SDS011;2890;51.950;7.668;2022-07-04T02:58:32;3.92;;;3.55;;
5730;SDS011;2890;51.950;7.668;2022-07-04T03:01:00;5.30;;;3.63;;
5730;SDS011;2890;51.950;7.668;2022-07-04T03:03:27;4.55;;;4.15;;
5730;SDS011;2890;51.950;7.668;2022-07-04T03:05:54;4.18;;;3.78;;
5730;SDS011;2890;51.950;7.668;2022-07-04T03:08:22;4.43;;;3.97;;
5730;SDS011;2890;51.950;7.668;2022-07-04T03:10:49;4.82;;;3.70;;
5730;SDS011;2890;51.950;7.668;2022-07-04T03:13:16;5.55;;;3.92;;
5730;SDS011;2890;51.950;7.668;2022-07-04T03:15:44;4.20;;;3.83;;
5730;SDS011;2890;51.950;7.668;2022-07-04T03:18:12;6.65;;;4.43;;
5730;SDS011;2890;51.950;7.668;2022-07-04T03:20:40;5.78;;;4.43;;
5730;SDS011;2890;51.950;7.668;2022-07-04T03:23:07;6.38;;;4.63;;
5730;SDS011;2890;51.950;7.668;2022-07-04T03:25:34;4.40;;;4.00;;
5730;SDS011;2890;51.950;7.668;2022-07-04T03:28:02;5.95;;;4.88;;
5730;SDS011;2890;51.950;7.668;2022-07-04T03:30:29;4.97;;;4.50;;
5730;SDS011;2890;51.950;7.668;2022-07-04T03:32:56;5.43;;;4.40;;
5730;SDS011;2890;51.950;7.668;2022-07-04T03:35:25;4.82;;;4.15;;
5730;SDS011;2890;51.950;7.668;2022-07-04T03:37:52;5.10;;;4.47;;
5730;SDS011;2890;51.950;7.668;2022-07-04T03:40:19;6.38;;;4.65;;
5730;SDS011;2890;51.950;7.668;2022-07-04T03:42:47;6.47;;;4.88;;
5730;SDS011;2890;51.950;7.668;2022-07-04T03:45:14;6.28;;;4.35;;
5730;SDS011;2890;51.950;7.668;2022-07-04T03:47:41;6.18;;;4.63;;
5730;SDS011;2890;51.950;7.668;2022-07-04T03:50:08;8.23;;;4.72;;
5730;SDS011;2890;51.950;7.668;2022-07-04T03:52:37;6.35;;;4.80;;
5730;SDS011;2890;51.950;7.668;2022-07-04T03:55:04;4.53;;;4.13;;
5730;SDS011;2890;51.950;7.668;2022-07-04T03:57:31;7.40;;;4.38;;
5730;SDS011;2890;51.950;7.668;2022-07-04T03:59:59;8.52;;;4.47;;
5730;SDS011;2890;51.950;7.668;2022-07-04T04:02:26;7.72;;;4.40;;
5730;SDS011;2890;51.950;7.668;2022-07-04T04:04:53;6.38;;;4.55;;
5730;SDS011;2890;51.950;7.668;2022-07-04T04:07:39;12.65;;;4.53;;
5730;SDS011;2890;51.950;7.668;2022-07-04T04:10:06;6.75;;;4.32;;
5730;SDS011;2890;51.950;7.668;2022-07-04T04:12:34;9.45;;;5.05;;
5730;SDS011;2890;51.950;7.668;2022-07-04T04:15:01;6.82;;;4.28;;
5730;SDS011;2890;51.950;7.668;2022-07-04T04:17:28;8.77;;;4.53;;
5730;SDS011;2890;51.950;7.668;2022-07-04T04:19:55;6.55;;;5.13;;
5730;SDS011;2890;51.950;7.668;2022-07-04T04:22:22;5.68;;;3.92;;
5730;SDS011;2890;51.950;7.668;2022-07-04T04:24:51;7.45;;;4.60;;
5730;SDS011;2890;51.950;7.668;2022-07-04T04:27:18;5.30;;;4.80;;
5730;SDS011;2890;51.950;7.668;2022-07-04T04:29:45;9.48;;;4.68;;
5730;SDS011;2890;51.950;7.668;2022-07-04T04:32:12;8.25;;;4.63;;
5730;SDS011;2890;51.950;7.668;2022-07-04T04:34:39;7.53;;;4.20;;
5730;SDS011;2890;51.950;7.668;2022-07-04T04:37:07;9.02;;;5.18;;
5730;SDS011;2890;51.950;7.668;2022-07-04T04:39:34;7.63;;;5.07;;
5730;SDS011;2890;51.950;7.668;2022-07-04T04:42:03;6.30;;;4.75;;
5730;SDS011;2890;51.950;7.668;2022-07-04T04:44:30;6.82;;;4.93;;
5730;SDS011;2890;51.950;7.668;2022-07-04T04:46:57;5.20;;;4.70;;
5730;SDS011;2890;51.950;7.668;2022-07-04T04:49:24;8.63;;;5.10;;
5730;SDS011;2890;51.950;7.668;2022-07-04T04:51:51;5.10;;;4.32;;
5730;SDS011;2890;51.950;7.668;2022-07-04T04:54:18;8.50;;;5.70;;
5730;SDS011;2890;51.950;7.668;2022-07-04T04:56:45;6.10;;;4.80;;
5730;SDS011;2890;51.950;7.668;2022-07-04T04:59:14;6.07;;;5.22;;
5730;SDS011;2890;51.950;7.668;2022-07-04T05:01:41;5.97;;;4.53;;
5730;SDS011;2890;51.950;7.668;2022-07-04T05:04:08;5.82;;;4.35;;
5730;SDS011;2890;51.950;7.668;2022-07-04T05:06:35;5.78;;;5.18;;
5730;SDS011;2890;51.950;7.668;2022-07-04T05:09:02;7.40;;;5.40;;
5730;SDS011;2890;51.950;7.668;2022-07-04T05:11:30;5.90;;;4.60;;
5730;SDS011;2890;51.950;7.668;2022-07-04T05:13:57;5.47;;;4.85;;
5730;SDS011;2890;51.950;7.668;2022-07-04T05:16:25;7.78;;;4.28;;
5730;SDS011;2890;51.950;7.668;2022-07-04T05:18:52;8.82;;;5.00;;
5730;SDS011;2890;51.950;7.668;2022-07-04T05:21:19;13.88;;;5.35;;
5730;SDS011;2890;51.950;7.668;2022-07-04T05:23:46;16.00;;;5.78;;
5730;SDS011;2890;51.950;7.668;2022-07-04T05:26:14;14.95;;;4.95;;
5730;SDS011;2890;51.950;7.668;2022-07-04T05:28:41;8.10;;;4.82;;
5730;SDS011;2890;51.950;7.668;2022-07-04T05:31:08;14.02;;;4.95;;
5730;SDS011;2890;51.950;7.668;2022-07-04T05:33:36;15.98;;;4.72;;
5730;SDS011;2890;51.950;7.668;2022-07-04T05:36:03;11.30;;;4.65;;
5730;SDS011;2890;51.950;7.668;2022-07-04T05:38:31;12.23;;;4.75;;
5730;SDS011;2890;51.950;7.668;2022-07-04T05:40:58;10.48;;;4.68;;
5730;SDS011;2890;51.950;7.668;2022-07-04T05:43:25;4.60;;;3.95;;
5730;SDS011;2890;51.950;7.668;2022-07-04T05:45:52;8.18;;;4.30;;
5730;SDS011;2890;51.950;7.668;2022-07-04T05:48:19;5.97;;;4.07;;
5730;SDS011;2890;51.950;7.668;2022-07-04T05:50:48;7.18;;;4.38;;
5730;SDS011;2890;51.950;7.668;2022-07-04T05:53:15;8.77;;;3.88;;
5730;SDS011;2890;51.950;7.668;2022-07-04T05:55:42;5.85;;;4.05;;
5730;SDS011;2890;51.950;7.668;2022-07-04T05:58:09;6.15;;;4.03;;
5730;SDS011;2890;51.950;7.668;2022-07-04T06:00:36;9.38;;;4.03;;
5730;SDS011;2890;51.950;7.668;2022-07-04T06:03:04;6.45;;;4.47;;
5730;SDS011;2890;51.950;7.668;2022-07-04T06:05:31;5.10;;;3.53;;
5730;SDS011;2890;51.950;7.668;2022-07-04T06:08:00;8.60;;;3.97;;
5730;SDS011;2890;51.950;7.668;2022-07-04T06:10:27;11.50;;;4.18;;
5730;SDS011;2890;51.950;7.668;2022-07-04T06:12:54;7.82;;;4.15;;
5730;SDS011;2890;51.950;7.668;2022-07-04T06:15:22;8.32;;;4.07;;
5730;SDS011;2890;51.950;7.668;2022-07-04T06:17:49;3.53;;;3.22;;
5730;SDS011;2890;51.950;7.668;2022-07-04T06:20:16;9.52;;;3.30;;
5730;SDS011;2890;51.950;7.668;2022-07-04T06:22:43;5.80;;;3.33;;
5730;SDS011;2890;51.950;7.668;2022-07-04T06:25:13;4.88;;;3.05;;
5730;SDS011;2890;51.950;7.668;2022-07-04T06:27:40;4.05;;;3.25;;
5730;SDS011;2890;51.950;7.668;2022-07-04T06:30:08;5.20;;;2.85;;
5730;SDS011;2890;51.950;7.668;2022-07-04T06:32:44;4.63;;;2.90;;
5730;SDS011;2890;51.950;7.668;2022-07-04T06:35:12;4.55;;;2.70;;
5730;SDS011;2890;51.950;7.668;2022-07-04T06:37:53;9.00;;;2.90;;
5730;SDS011;2890;51.950;7.668;2022-07-04T06:40:22;3.83;;;2.55;;
5730;SDS011;2890;51.950;7.668;2022-07-04T06:42:49;3.72;;;2.33;;
5730;SDS011;2890;51.950;7.668;2022-07-04T06:45:16;4.45;;;2.20;;
5730;SDS011;2890;51.950;7.668;2022-07-04T06:47:43;2.33;;;1.98;;
5730;SDS011;2890;51.950;7.668;2022-07-04T06:50:10;5.00;;;1.90;;
5730;SDS011;2890;51.950;7.668;2022-07-04T06:52:37;2.67;;;1.70;;
5730;SDS011;2890;51.950;7.668;2022-07-04T06:55:05;5.13;;;2.42;;
5730;SDS011;2890;51.950;7.668;2022-07-04T06:57:33;4.40;;;2.50;;
5730;SDS011;2890;51.950;7.668;2022-07-04T07:00:00;2.85;;;2.17;;
5730;SDS011;2890;51.950;7.668;2022-07-04T07:02:28;4.43;;;2.13;;
5730;SDS011;2890;51.950;7.668;2022-07-04T07:04:54;3.92;;;2.00;;
5730;SDS011;2890;51.950;7.668;2022-07-04T07:07:21;4.55;;;1.83;;
5730;SDS011;2890;51.950;7.668;2022-07-04T07:09:49;4.47;;;2.40;;
5730;SDS011;2890;51.950;7.668;2022-07-04T07:12:16;3.35;;;2.10;;
5730;SDS011;2890;51.950;7.668;2022-07-04T07:14:44;3.88;;;1.90;;
5730;SDS011;2890;51.950;7.668;2022-07-04T07:17:11;3.92;;;1.90;;
5730;SDS011;2890;51.950;7.668;2022-07-04T07:19:38;4.80;;;2.33;;
5730;SDS011;2890;51.950;7.668;2022-07-04T07:22:05;4.90;;;2.25;;
5730;SDS011;2890;51.950;7.668;2022-07-04T07:24:31;6.15;;;2.50;;
5730;SDS011;2890;51.950;7.668;2022-07-04T07:26:58;3.67;;;1.80;;
5730;SDS011;2890;51.950;7.668;2022-07-04T07:29:25;4.40;;;2.13;;
5730;SDS011;2890;51.950;7.668;2022-07-04T07:31:53;2.33;;;1.60;;
5730;SDS011;2890;51.950;7.668;2022-07-04T07:34:20;4.25;;;1.70;;
5730;SDS011;2890;51.950;7.668;2022-07-04T07:36:46;3.08;;;1.83;;
5730;SDS011;2890;51.950;7.668;2022-07-04T07:39:13;2.70;;;1.67;;
5730;SDS011;2890;51.950;7.668;2022-07-04T07:41:40;3.58;;;1.80;;
5730;SDS011;2890;51.950;7.668;2022-07-04T07:44:07;4.45;;;2.50;;
5730;SDS011;2890;51.950;7.668;2022-07-04T07:46:34;3.17;;;1.85;;
5730;SDS011;2890;51.950;7.668;2022-07-04T07:49:02;4.50;;;2.33;;
5730;SDS011;2890;51.950;7.668;2022-07-04T07:51:29;3.30;;;1.80;;
5730;SDS011;2890;51.950;7.668;2022-07-04T07:53:56;2.65;;;1.85;;
5730;SDS011;2890;51.950;7.668;2022-07-04T07:56:22;4.82;;;2.50;;
5730;SDS011;2890;51.950;7.668;2022-07-04T07:58:49;3.58;;;2.40;;
5730;SDS011;2890;51.950;7.668;2022-07-04T08:01:16;2.20;;;1.77;;
5730;SDS011;2890;51.950;7.668;2022-07-04T08:03:43;3.78;;;1.80;;
5730;SDS011;2890;51.950;7.668;2022-07-04T08:06:29;2.78;;;1.40;;
5730;SDS011;2890;51.950;7.668;2022-07-04T08:08:55;5.65;;;1.90;;
5730;SDS011;2890;51.950;7.668;2022-07-04T08:11:22;5.53;;;1.70;;
5730;SDS011;2890;51.950;7.668;2022-07-04T08:13:49;2.33;;;1.45;;
5730;SDS011;2890;51.950;7.668;2022-07-04T08:16:15;3.00;;;1.70;;
5730;SDS011;2890;51.950;7.668;2022-07-04T08:18:42;2.42;;;1.83;;
5730;SDS011;2890;51.950;7.668;2022-07-04T08:21:09;4.15;;;1.60;;
5730;SDS011;2890;51.950;7.668;2022-07-04T08:23:39;2.58;;;1.60;;
5730;SDS011;2890;51.950;7.668;2022-07-04T08:26:07;2.25;;;1.23;;
5730;SDS011;2890;51.950;7.668;2022-07-04T08:28:34;2.92;;;1.58;;
5730;SDS011;2890;51.950;7.668;2022-07-04T08:31:00;3.65;;;1.60;;
5730;SDS011;2890;51.950;7.668;2022-07-04T08:33:29;4.60;;;1.60;;
5730;SDS011;2890;51.950;7.668;2022-07-04T08:35:56;3.60;;;1.50;;
5730;SDS011;2890;51.950;7.668;2022-07-04T08:38:23;2.35;;;1.50;;
5730;SDS011;2890;51.950;7.668;2022-07-04T08:40:52;1.88;;;1.33;;
5730;SDS011;2890;51.950;7.668;2022-07-04T08:43:23;3.30;;;1.40;;
5730;SDS011;2890;51.950;7.668;2022-07-04T08:45:52;2.60;;;1.33;;
5730;SDS011;2890;51.950;7.668;2022-07-04T08:48:21;4.80;;;1.38;;
5730;SDS011;2890;51.950;7.668;2022-07-04T08:50:51;2.20;;;1.20;;
5730;SDS011;2890;51.950;7.668;2022-07-04T08:53:21;3.13;;;1.23;;
5730;SDS011;2890;51.950;7.668;2022-07-04T08:55:49;2.58;;;1.45;;
5730;SDS011;2890;51.950;7.668;2022-07-04T08:58:36;1.30;;;1.05;;
5730;SDS011;2890;51.950;7.668;2022-07-04T09:01:05;2.40;;;1.05;;
5730;SDS011;2890;51.950;7.668;2022-07-04T09:03:33;7.07;;;1.33;;
5730;SDS011;2890;51.950;7.668;2022-07-04T09:06:00;2.83;;;1.25;;
5730;SDS011;2890;51.950;7.668;2022-07-04T09:08:28;4.07;;;2.47;;
5730;SDS011;2890;51.950;7.668;2022-07-04T09:10:55;3.08;;;1.58;;
5730;SDS011;2890;51.950;7.668;2022-07-04T09:13:21;3.30;;;2.20;;
5730;SDS011;2890;51.950;7.668;2022-07-04T09:15:50;1.55;;;1.20;;
5730;SDS011;2890;51.950;7.668;2022-07-04T09:18:21;1.40;;;1.00;;
5730;SDS011;2890;51.950;7.668;2022-07-04T09:20:49;1.88;;;1.15;;
5730;SDS011;2890;51.950;7.668;2022-07-04T09:23:17;1.27;;;1.13;;
5730;SDS011;2890;51.950;7.668;2022-07-04T09:25:45;2.72;;;1.33;;
5730;SDS011;2890;51.950;7.668;2022-07-04T09:28:12;1.33;;;1.10;;
5730;SDS011;2890;51.950;7.668;2022-07-04T09:30:53;2.65;;;1.17;;
5730;SDS011;2890;51.950;7.668;2022-07-04T09:33:20;2.58;;;1.77;;
5730;SDS011;2890;51.950;7.668;2022-07-04T09:35:48;3.40;;;1.40;;
5730;SDS011;2890;51.950;7.668;2022-07-04T09:38:21;1.45;;;1.10;;
5730;SDS011;2890;51.950;7.668;2022-07-04T09:40:51;1.75;;;1.13;;
5730;SDS011;2890;51.950;7.668;2022-07-04T09:43:36;2.75;;;1.13;;
5730;SDS011;2890;51.950;7.668;2022-07-04T09:46:04;1.38;;;0.95;;
5730;SDS011;2890;51.950;7.668;2022-07-04T09:51:17;2.35;;;1.00;;
5730;SDS011;2890;51.950;7.668;2022-07-04T09:54:11;2.55;;;1.27;;
5730;SDS011;2890;51.950;7.668;2022-07-04T09:56:39;2.47;;;1.10;;
5730;SDS011;2890;51.950;7.668;2022-07-04T09:59:06;3.13;;;1.42;;
5730;SDS011;2890;51.950;7.668;2022-07-04T10:01:34;1.83;;;1.00;;
5730;SDS011;2890;51.950;7.668;2022-07-04T10:04:01;1.27;;;0.88;;
5730;SDS011;2890;51.950;7.668;2022-07-04T10:06:30;2.00;;;0.90;;
5730;SDS011;2890;51.950;7.668;2022-07-04T10:09:05;1.50;;;1.05;;
5730;SDS011;2890;51.950;7.668;2022-07-04T10:11:34;4.15;;;1.33;;
5730;SDS011;2890;51.950;7.668;2022-07-04T10:14:03;2.58;;;1.60;;
5730;SDS011;2890;51.950;7.668;2022-07-04T10:16:31;1.80;;;1.13;;
5730;SDS011;2890;51.950;7.668;2022-07-04T10:18:59;3.65;;;1.50;;
5730;SDS011;2890;51.950;7.668;2022-07-04T10:21:26;2.63;;;1.60;;
5730;SDS011;2890;51.950;7.668;2022-07-04T10:23:54;3.92;;;3.15;;
5730;SDS011;2890;51.950;7.668;2022-07-04T10:26:21;2.08;;;1.27;;
5730;SDS011;2890;51.950;7.668;2022-07-04T10:28:48;3.25;;;1.10;;
5730;SDS011;2890;51.950;7.668;2022-07-04T10:31:17;1.88;;;1.70;;
5730;SDS011;2890;51.950;7.668;2022-07-04T10:33:46;1.65;;;1.20;;
5730;SDS011;2890;51.950;7.668;2022-07-04T10:36:15;4.55;;;1.92;;
5730;SDS011;2890;51.950;7.668;2022-07-04T10:38:46;1.88;;;1.33;;
5730;SDS011;2890;51.950;7.668;2022-07-04T10:41:14;2.05;;;1.15;;
5730;SDS011;2890;51.950;7.668;2022-07-04T10:43:53;1.58;;;1.05;;
5730;SDS011;2890;51.950;7.668;2022-07-04T10:46:34;2.47;;;1.30;;
5730;SDS011;2890;51.950;7.668;2022-07-04T10:49:03;2.25;;;1.10;;
5730;SDS011;2890;51.950;7.668;2022-07-04T10:51:34;2.08;;;0.82;;
5730;SDS011;2890;51.950;7.668;2022-07-04T10:54:07;2.25;;;1.30;;
5730;SDS011;2890;51.950;7.668;2022-07-04T10:56:36;1.13;;;0.95;;
5730;SDS011;2890;51.950;7.668;2022-07-04T10:59:14;2.33;;;1.25;;
5730;SDS011;2890;51.950;7.668;2022-07-04T11:01:46;2.13;;;0.90;;
5730;SDS011;2890;51.950;7.668;2022-07-04T11:07:13;3.38;;;1.00;;
5730;SDS011;2890;51.950;7.668;2022-07-04T11:09:40;1.10;;;1.00;;
5730;SDS011;2890;51.950;7.668;2022-07-04T11:12:08;2.75;;;1.20;;
5730;SDS011;2890;51.950;7.668;2022-07-04T11:14:36;1.20;;;1.10;;
5730;SDS011;2890;51.950;7.668;2022-07-04T11:17:05;1.52;;;1.00;;
5730;SDS011;2890;51.950;7.668;2022-07-04T11:19:33;1.75;;;1.08;;
5730;SDS011;2890;51.950;7.668;2022-07-04T11:21:59;1.52;;;1.05;;
5730;SDS011;2890;51.950;7.668;2022-07-04T11:24:28;2.22;;;0.93;;
5730;SDS011;2890;51.950;7.668;2022-07-04T11:26:55;2.00;;;1.10;;
5730;SDS011;2890;51.950;7.668;2022-07-04T11:29:22;1.67;;;1.10;;
5730;SDS011;2890;51.950;7.668;2022-07-04T11:31:49;1.40;;;1.00;;
5730;SDS011;2890;51.950;7.668;2022-07-04T11:34:17;1.42;;;1.10;;
5730;SDS011;2890;51.950;7.668;2022-07-04T11:36:45;1.67;;;1.10;;
5730;SDS011;2890;51.950;7.668;2022-07-04T11:39:13;1.55;;;0.95;;
5730;SDS011;2890;51.950;7.668;2022-07-04T11:41:45;1.95;;;1.15;;
5730;SDS011;2890;51.950;7.668;2022-07-04T11:44:31;1.92;;;1.00;;
5730;SDS011;2890;51.950;7.668;2022-07-04T11:47:17;2.05;;;1.60;;
5730;SDS011;2890;51.950;7.668;2022-07-04T11:49:46;1.42;;;1.08;;
5730;SDS011;2890;51.950;7.668;2022-07-04T11:52:15;1.45;;;0.93;;
5730;SDS011;2890;51.950;7.668;2022-07-04T11:54:44;2.40;;;1.20;;
5730;SDS011;2890;51.950;7.668;2022-07-04T11:57:17;1.95;;;1.20;;
5730;SDS011;2890;51.950;7.668;2022-07-04T11:59:55;3.88;;;1.10;;
5730;SDS011;2890;51.950;7.668;2022-07-04T12:02:24;4.60;;;1.08;;
5730;SDS011;2890;51.950;7.668;2022-07-04T12:04:52;2.45;;;1.25;;
5730;SDS011;2890;51.950;7.668;2022-07-04T12:07:19;2.08;;;1.00;;
5730;SDS011;2890;51.950;7.668;2022-07-04T12:09:48;3.13;;;1.20;;
5730;SDS011;2890;51.950;7.668;2022-07-04T12:12:15;2.95;;;1.13;;
5730;SDS011;2890;51.950;7.668;2022-07-04T12:14:56;2.38;;;1.00;;
5730;SDS011;2890;51.950;7.668;2022-07-04T12:17:28;2.80;;;1.30;;
5730;SDS011;2890;51.950;7.668;2022-07-04T12:19:57;1.65;;;1.20;;
5730;SDS011;2890;51.950;7.668;2022-07-04T12:22:26;4.20;;;1.40;;
5730;SDS011;2890;51.950;7.668;2022-07-04T12:24:55;2.20;;;1.20;;
5730;SDS011;2890;51.950;7.668;2022-07-04T12:27:24;2.47;;;1.10;;
5730;SDS011;2890;51.950;7.668;2022-07-04T12:29:51;2.33;;;1.10;;
5730;SDS011;2890;51.950;7.668;2022-07-04T12:32:19;2.58;;;1.52;;
5730;SDS011;2890;51.950;7.668;2022-07-04T12:34:47;3.25;;;1.08;;
5730;SDS011;2890;51.950;7.668;2022-07-04T12:37:14;4.05;;;1.30;;
5730;SDS011;2890;51.950;7.668;2022-07-04T12:39:42;3.80;;;1.30;;
5730;SDS011;2890;51.950;7.668;2022-07-04T12:42:10;3.17;;;1.30;;
5730;SDS011;2890;51.950;7.668;2022-07-04T12:44:41;4.03;;;1.17;;
5730;SDS011;2890;51.950;7.668;2022-07-04T12:47:08;3.20;;;1.13;;
5730;SDS011;2890;51.950;7.668;2022-07-04T12:49:36;3.33;;;1.17;;
5730;SDS011;2890;51.950;7.668;2022-07-04T12:52:04;2.45;;;1.40;;
5730;SDS011;2890;51.950;7.668;2022-07-04T12:54:31;2.08;;;1.10;;
5730;SDS011;2890;51.950;7.668;2022-07-04T12:57:05;1.52;;;1.00;;
5730;SDS011;2890;51.950;7.668;2022-07-04T12:59:37;3.58;;;1.17;;
5730;SDS011;2890;51.950;7.668;2022-07-04T13:02:06;2.75;;;1.38;;
5730;SDS011;2890;51.950;7.668;2022-07-04T13:04:34;1.38;;;0.98;;
5730;SDS011;2890;51.950;7.668;2022-07-04T13:07:11;2.80;;;1.48;;
5730;SDS011;2890;51.950;7.668;2022-07-04T13:09:39;1.20;;;1.10;;
5730;SDS011;2890;51.950;7.668;2022-07-04T13:12:07;2.72;;;1.23;;
5730;SDS011;2890;51.950;7.668;2022-07-04T13:14:54;1.90;;;1.33;;
5730;SDS011;2890;51.950;7.668;2022-07-04T13:17:23;2.38;;;1.27;;
5730;SDS011;2890;51.950;7.668;2022-07-04T13:19:51;2.03;;;1.20;;
5730;SDS011;2890;51.950;7.668;2022-07-04T13:22:18;2.70;;;1.33;;
5730;SDS011;2890;51.950;7.668;2022-07-04T13:24:45;3.78;;;1.10;;
5730;SDS011;2890;51.950;7.668;2022-07-04T13:27:12;2.75;;;1.00;;
5730;SDS011;2890;51.950;7.668;2022-07-04T13:29:39;1.17;;;1.02;;
5730;SDS011;2890;51.950;7.668;2022-07-04T13:32:06;4.30;;;1.33;;
5730;SDS011;2890;51.950;7.668;2022-07-04T13:34:35;1.33;;;1.20;;
5730;SDS011;2890;51.950;7.668;2022-07-04T13:37:02;2.38;;;1.13;;
5730;SDS011;2890;51.950;7.668;2022-07-04T13:39:30;2.40;;;1.17;;
5730;SDS011;2890;51.950;7.668;2022-07-04T13:41:56;2.33;;;1.08;;
5730;SDS011;2890;51.950;7.668;2022-07-04T13:44:23;2.10;;;1.30;;
5730;SDS011;2890;51.950;7.668;2022-07-04T13:46:50;4.30;;;1.30;;
5730;SDS011;2890;51.950;7.668;2022-07-04T13:49:17;2.83;;;1.33;;
5730;SDS011;2890;51.950;7.668;2022-07-04T13:51:45;2.33;;;1.27;;
5730;SDS011;2890;51.950;7.668;2022-07-04T13:54:11;2.40;;;1.38;;
5730;SDS011;2890;51.950;7.668;2022-07-04T13:56:38;2.75;;;1.30;;
5730;SDS011;2890;51.950;7.668;2022-07-04T13:59:07;5.40;;;1.52;;
5730;SDS011;2890;51.950;7.668;2022-07-04T14:01:34;2.53;;;1.13;;
5730;SDS011;2890;51.950;7.668;2022-07-04T14:04:01;1.58;;;1.08;;
5730;SDS011;2890;51.950;7.668;2022-07-04T14:06:28;2.17;;;1.08;;
5730;SDS011;2890;51.950;7.668;2022-07-04T14:08:56;2.72;;;1.23;;
5730;SDS011;2890;51.950;7.668;2022-07-04T14:11:23;1.58;;;0.90;;
5730;SDS011;2890;51.950;7.668;2022-07-04T14:13:50;4.05;;;1.25;;
5730;SDS011;2890;51.950;7.668;2022-07-04T14:16:17;1.42;;;1.15;;
5730;SDS011;2890;51.950;7.668;2022-07-04T14:18:43;2.05;;;1.15;;
5730;SDS011;2890;51.950;7.668;2022-07-04T14:21:10;2.03;;;1.20;;
5730;SDS011;2890;51.950;7.668;2022-07-04T14:23:37;2.85;;;1.38;;
5730;SDS011;2890;51.950;7.668;2022-07-04T14:26:08;1.35;;;1.25;;
5730;SDS011;2890;51.950;7.668;2022-07-04T14:28:36;2.40;;;1.33;;
5730;SDS011;2890;51.950;7.668;2022-07-04T14:31:03;2.70;;;1.45;;
5730;SDS011;2890;51.950;7.668;2022-07-04T14:33:30;1.35;;;1.00;;
5730;SDS011;2890;51.950;7.668;2022-07-04T14:35:58;3.30;;;1.73;;
5730;SDS011;2890;51.950;7.668;2022-07-04T14:38:25;3.70;;;1.50;;
5730;SDS011;2890;51.950;7.668;2022-07-04T14:40:52;2.10;;;1.40;;
5730;SDS011;2890;51.950;7.668;2022-07-04T14:43:20;3.60;;;1.13;;
5730;SDS011;2890;51.950;7.668;2022-07-04T14:45:47;3.53;;;1.60;;
5730;SDS011;2890;51.950;7.668;2022-07-04T14:48:13;5.00;;;1.75;;
5730;SDS011;2890;51.950;7.668;2022-07-04T14:50:40;4.43;;;1.70;;
5730;SDS011;2890;51.950;7.668;2022-07-04T14:53:07;1.30;;;1.20;;
5730;SDS011;2890;51.950;7.668;2022-07-04T14:55:34;2.53;;;1.45;;
5730;SDS011;2890;51.950;7.668;2022-07-04T14:58:01;3.70;;;1.50;;
5730;SDS011;2890;51.950;7.668;2022-07-04T15:00:29;2.15;;;1.48;;
5730;SDS011;2890;51.950;7.668;2022-07-04T15:02:56;4.60;;;1.42;;
5730;SDS011;2890;51.950;7.668;2022-07-04T15:05:23;3.85;;;1.30;;
5730;SDS011;2890;51.950;7.668;2022-07-04T15:07:49;3.60;;;1.55;;
5730;SDS011;2890;51.950;7.668;2022-07-04T15:10:18;3.72;;;1.50;;
5730;SDS011;2890;51.950;7.668;2022-07-04T15:12:45;2.53;;;1.75;;
5730;SDS011;2890;51.950;7.668;2022-07-04T15:15:12;3.10;;;1.60;;
5730;SDS011;2890;51.950;7.668;2022-07-04T15:17:40;1.90;;;1.35;;
5730;SDS011;2890;51.950;7.668;2022-07-04T15:20:08;3.78;;;1.35;;
5730;SDS011;2890;51.950;7.668;2022-07-04T15:22:53;4.95;;;1.42;;
5730;SDS011;2890;51.950;7.668;2022-07-04T15:25:37;4.68;;;1.42;;
5730;SDS011;2890;51.950;7.668;2022-07-04T15:28:04;3.50;;;1.30;;